createdAt,value
2019-05-05T00:01:45.466Z,9.53
2019-05-05T00:04:30.342Z,7.75
2019-05-05T00:06:56.684Z,6.95
2019-05-05T00:09:25.247Z,7.78
2019-05-05T00:12:02.393Z,8.85
2019-05-05T00:14:35.090Z,10.48
2019-05-05T00:17:21.639Z,7.28
2019-05-05T00:19:47.959Z,8.93
2019-05-05T00:22:15.135Z,11.18
2019-05-05T00:24:41.699Z,9.05
2019-05-05T00:27:08.316Z,9.30
2019-05-05T00:29:34.768Z,8.60
2019-05-05T00:32:01.376Z,9.78
2019-05-05T00:34:27.840Z,9.40
2019-05-05T00:36:55.273Z,9.33
2019-05-05T00:39:21.895Z,9.15
2019-05-05T00:41:48.305Z,9.28
2019-05-05T00:44:15.317Z,10.58
2019-05-05T00:46:56.250Z,9.63
2019-05-05T00:49:25.005Z,9.18
2019-05-05T00:51:51.462Z,8.48
2019-05-05T00:54:18.366Z,9.85
2019-05-05T00:56:45.155Z,8.33
2019-05-05T00:59:16.358Z,8.50
2019-05-05T01:04:16.558Z,9.60
2019-05-05T01:06:45.045Z,9.73
2019-05-05T01:09:14.839Z,9.30
2019-05-05T01:11:41.575Z,10.68
2019-05-05T01:14:07.969Z,10.28
2019-05-05T01:16:35.117Z,10.10
2019-05-05T01:19:01.491Z,12.30
2019-05-05T01:21:27.958Z,11.50
2019-05-05T01:23:54.923Z,13.78
2019-05-05T01:26:21.532Z,13.15
2019-05-05T01:28:47.811Z,12.85
2019-05-05T01:31:16.100Z,15.00
2019-05-05T01:33:44.946Z,13.60
2019-05-05T01:36:11.176Z,17.75
2019-05-05T01:38:39.334Z,15.85
2019-05-05T01:41:11.536Z,20.05
2019-05-05T01:43:38.545Z,18.90
2019-05-05T01:46:05.214Z,43.45
2019-05-05T01:48:31.550Z,19.37
2019-05-05T01:50:58.049Z,15.83
2019-05-05T01:53:24.589Z,32.75
2019-05-05T01:55:51.621Z,24.12
2019-05-05T01:58:18.508Z,33.13
2019-05-05T02:00:45.279Z,29.30
2019-05-05T02:03:12.341Z,56.90
2019-05-05T02:05:38.538Z,168.07
2019-05-05T02:08:05.156Z,60.45
2019-05-05T02:10:31.481Z,134.22
2019-05-05T02:12:57.793Z,87.25
2019-05-05T02:15:25.047Z,81.95
2019-05-05T02:17:51.403Z,212.38
2019-05-05T02:20:45.081Z,84.67
2019-05-05T02:23:15.136Z,64.35
2019-05-05T02:25:41.520Z,32.78
2019-05-05T02:28:07.959Z,59.50
2019-05-05T02:30:48.776Z,23.52
2019-05-05T02:33:17.224Z,43.30
2019-05-05T02:35:45.933Z,24.15
2019-05-05T02:38:11.922Z,25.45
2019-05-05T02:40:39.221Z,24.63
2019-05-05T02:43:06.454Z,25.50
2019-05-05T02:45:59.266Z,26.50
2019-05-05T02:48:26.833Z,23.00
2019-05-05T02:51:01.148Z,25.05
2019-05-05T02:53:27.783Z,26.30
2019-05-05T02:55:58.548Z,18.27
2019-05-05T02:58:26.624Z,25.35
2019-05-05T03:01:04.925Z,25.75
2019-05-05T03:03:34.347Z,22.02
2019-05-05T03:06:00.646Z,25.45
2019-05-05T03:08:28.339Z,22.25
2019-05-05T03:10:57.601Z,24.37
2019-05-05T03:13:24.393Z,25.10
2019-05-05T03:15:57.513Z,23.92
2019-05-05T03:18:24.658Z,24.65
2019-05-05T03:21:03.816Z,23.45
2019-05-05T03:23:20.162Z,23.25
2019-05-05T03:25:47.114Z,23.92
2019-05-05T03:28:13.698Z,24.75
2019-05-05T03:30:40.339Z,23.10
2019-05-05T03:33:06.862Z,22.95
2019-05-05T03:35:34.565Z,21.65
2019-05-05T03:38:01.283Z,22.05
2019-05-05T03:40:29.759Z,22.93
2019-05-05T03:42:57.878Z,24.40
2019-05-05T03:45:29.528Z,22.52
2019-05-05T03:47:56.137Z,26.35
2019-05-05T03:50:23.783Z,21.97
2019-05-05T03:52:50.548Z,23.47
2019-05-05T03:55:17.185Z,22.65
2019-05-05T03:57:44.512Z,23.05
2019-05-05T04:00:14.133Z,22.45
2019-05-05T04:02:44.956Z,22.32
2019-05-05T04:07:46.027Z,27.75
2019-05-05T04:10:14.081Z,26.75
2019-05-05T04:12:40.821Z,24.15
2019-05-05T04:15:07.319Z,27.98
2019-05-05T04:17:35.704Z,28.77
2019-05-05T04:20:17.874Z,28.62
2019-05-05T04:22:45.715Z,28.70
2019-05-05T04:25:13.922Z,30.92
2019-05-05T04:27:40.391Z,27.20
2019-05-05T04:30:06.918Z,28.77
2019-05-05T04:32:34.844Z,28.47
2019-05-05T04:35:01.153Z,29.70
2019-05-05T04:37:27.420Z,34.88
2019-05-05T04:39:53.914Z,32.73
2019-05-05T04:42:20.171Z,34.33
2019-05-05T04:44:47.351Z,33.75
2019-05-05T04:47:18.340Z,35.43
2019-05-05T04:52:34.180Z,31.37
2019-05-05T04:55:00.439Z,30.77
2019-05-05T04:57:26.824Z,31.70
2019-05-05T04:59:54.034Z,30.30
2019-05-05T05:02:23.608Z,30.48
2019-05-05T05:04:57.695Z,33.63
2019-05-05T05:07:24.332Z,28.92
2019-05-05T05:09:51.355Z,30.85
2019-05-05T05:12:17.736Z,32.73
2019-05-05T05:14:44.240Z,28.60
2019-05-05T05:17:14.103Z,30.35
2019-05-05T05:19:40.549Z,29.32
2019-05-05T05:22:06.737Z,26.52
2019-05-05T05:24:34.303Z,25.95
2019-05-05T05:27:00.785Z,26.62
2019-05-05T05:29:27.042Z,23.35
2019-05-05T05:31:53.565Z,25.68
2019-05-05T05:34:19.692Z,23.77
2019-05-05T05:36:45.917Z,25.12
2019-05-05T05:39:16.730Z,26.45
2019-05-05T05:41:43.986Z,24.87
2019-05-05T05:44:31.105Z,25.82
2019-05-05T05:46:59.427Z,31.15
2019-05-05T05:49:39.568Z,25.37
2019-05-05T05:52:13.398Z,25.70
2019-05-05T05:54:34.112Z,27.87
2019-05-05T05:57:00.378Z,23.73
2019-05-05T05:59:26.529Z,26.37
2019-05-05T06:02:08.374Z,25.82
2019-05-05T06:04:20.909Z,26.60
2019-05-05T06:06:47.241Z,29.15
2019-05-05T06:09:14.857Z,24.70
2019-05-05T06:11:41.216Z,24.10
2019-05-05T06:14:07.395Z,23.02
2019-05-05T06:16:34.151Z,25.23
2019-05-05T06:19:00.622Z,22.85
2019-05-05T06:21:26.942Z,22.48
2019-05-05T06:23:53.741Z,19.57
2019-05-05T06:26:20.313Z,21.12
2019-05-05T06:28:46.606Z,17.42
2019-05-05T06:31:13.998Z,18.02
2019-05-05T06:33:40.475Z,18.23
2019-05-05T06:36:06.754Z,22.73
2019-05-05T06:38:34.534Z,26.52
2019-05-05T06:41:09.147Z,36.45
2019-05-05T06:43:40.345Z,22.30
2019-05-05T06:46:17.673Z,19.60
2019-05-05T06:48:43.994Z,18.45
2019-05-05T06:51:11.360Z,20.08
2019-05-05T06:53:37.635Z,17.62
2019-05-05T06:56:04.243Z,13.85
2019-05-05T06:58:30.391Z,17.65
2019-05-05T07:00:56.691Z,21.95
2019-05-05T07:03:24.302Z,17.75
2019-05-05T07:05:53.742Z,14.75
2019-05-05T07:08:19.822Z,24.07
2019-05-05T07:10:46.101Z,14.25
2019-05-05T07:13:14.007Z,13.45
2019-05-05T07:15:40.535Z,12.53
2019-05-05T07:18:06.750Z,9.40
2019-05-05T07:20:34.663Z,9.48
2019-05-05T07:23:02.967Z,11.90
2019-05-05T07:25:39.898Z,9.50
2019-05-05T07:27:57.243Z,10.28
2019-05-05T07:30:24.332Z,14.78
2019-05-05T07:32:50.718Z,11.20
2019-05-05T07:35:27.823Z,12.70
2019-05-05T07:37:54.107Z,10.58
2019-05-05T07:40:20.219Z,13.38
2019-05-05T07:42:46.657Z,10.32
2019-05-05T07:45:22.644Z,12.13
2019-05-05T07:47:43.689Z,10.40
2019-05-05T07:50:18.941Z,8.75
2019-05-05T07:52:38.209Z,10.68
2019-05-05T07:55:04.655Z,8.75
2019-05-05T07:57:30.756Z,15.88
2019-05-05T07:59:56.992Z,18.57
2019-05-05T08:02:23.753Z,21.12
2019-05-05T08:04:50.069Z,17.42
2019-05-05T08:07:16.361Z,17.12
2019-05-05T08:09:44.423Z,16.95
2019-05-05T08:12:10.786Z,41.35
2019-05-05T08:14:37.003Z,14.43
2019-05-05T08:17:05.619Z,11.75
2019-05-05T08:19:43.890Z,13.62
2019-05-05T08:22:10.116Z,12.88
2019-05-05T08:24:56.377Z,13.48
2019-05-05T08:27:25.044Z,17.20
2019-05-05T08:29:54.317Z,17.15
2019-05-05T08:32:23.797Z,17.12
2019-05-05T08:34:59.837Z,10.58
2019-05-05T08:37:23.589Z,10.72
2019-05-05T08:39:50.988Z,13.18
2019-05-05T08:42:17.300Z,11.88
2019-05-05T08:44:44.743Z,11.57
2019-05-05T08:47:11.149Z,15.30
2019-05-05T08:49:37.336Z,12.60
2019-05-05T08:52:04.213Z,10.58
2019-05-05T08:54:30.448Z,12.28
2019-05-05T08:56:56.866Z,7.33
2019-05-05T08:59:24.229Z,8.05
2019-05-05T09:01:50.624Z,8.55
2019-05-05T09:04:16.835Z,10.30
2019-05-05T09:06:43.734Z,13.83
2019-05-05T09:09:10.197Z,10.00
2019-05-05T09:11:36.519Z,10.82
2019-05-05T09:14:04.146Z,10.85
2019-05-05T09:16:30.700Z,9.95
2019-05-05T09:18:58.878Z,7.87
2019-05-05T09:21:25.447Z,8.75
2019-05-05T09:23:59.891Z,7.50
2019-05-05T09:26:24.754Z,8.83
2019-05-05T09:31:23.908Z,7.53
2019-05-05T09:33:50.171Z,11.80
2019-05-05T09:36:16.494Z,7.45
2019-05-05T09:38:44.591Z,8.30
2019-05-05T09:41:11.127Z,7.90
2019-05-05T09:43:37.511Z,13.75
2019-05-05T09:46:04.114Z,10.15
2019-05-05T09:48:30.305Z,9.50
2019-05-05T09:50:56.587Z,6.53
2019-05-05T09:53:23.802Z,7.90
2019-05-05T09:55:51.004Z,8.05
2019-05-05T09:58:17.226Z,8.10
2019-05-05T10:00:45.439Z,5.87
2019-05-05T10:03:11.763Z,6.25
2019-05-05T10:05:37.910Z,6.42
2019-05-05T10:08:04.348Z,6.42
2019-05-05T10:10:30.513Z,7.33
2019-05-05T10:12:56.728Z,6.53
2019-05-05T10:15:23.121Z,5.00
2019-05-05T10:17:49.506Z,5.28
2019-05-05T10:20:16.484Z,4.75
2019-05-05T10:22:43.853Z,6.67
2019-05-05T10:25:28.447Z,4.40
2019-05-05T10:27:55.162Z,4.30
2019-05-05T10:30:23.718Z,6.05
2019-05-05T10:32:49.692Z,5.55
2019-05-05T10:35:16.001Z,5.80
2019-05-05T10:37:43.884Z,4.70
2019-05-05T10:40:12.640Z,5.85
2019-05-05T10:42:51.078Z,3.80
2019-05-05T10:45:24.470Z,3.83
2019-05-05T10:47:51.065Z,4.70
2019-05-05T10:50:18.374Z,4.03
2019-05-05T10:52:44.737Z,3.40
2019-05-05T10:55:14.397Z,4.10
2019-05-05T10:57:40.479Z,3.72
2019-05-05T11:00:12.286Z,3.35
2019-05-05T11:02:36.480Z,3.47
2019-05-05T11:05:07.608Z,3.42
2019-05-05T11:07:34.153Z,3.08
2019-05-05T11:10:03.185Z,2.65
2019-05-05T11:12:29.710Z,2.50
2019-05-05T11:14:55.934Z,6.58
2019-05-05T11:17:24.621Z,6.20
2019-05-05T11:19:50.324Z,2.50
2019-05-05T11:22:16.651Z,3.25
2019-05-05T11:24:55.185Z,2.58
2019-05-05T11:27:11.028Z,4.25
2019-05-05T11:29:39.043Z,3.47
2019-05-05T11:32:07.173Z,2.25
2019-05-05T11:34:33.831Z,2.87
2019-05-05T11:37:03.728Z,2.40
2019-05-05T11:39:30.054Z,4.20
2019-05-05T11:41:56.418Z,3.37
2019-05-05T11:44:24.268Z,3.72
2019-05-05T11:46:50.709Z,3.80
2019-05-05T11:49:16.910Z,6.72
2019-05-05T11:51:43.808Z,4.12
2019-05-05T11:54:10.092Z,3.92
2019-05-05T11:56:36.405Z,5.08
2019-05-05T11:59:03.885Z,3.67
2019-05-05T12:01:30.489Z,3.10
2019-05-05T12:03:56.725Z,3.50
2019-05-05T12:06:24.704Z,2.87
2019-05-05T12:08:51.472Z,3.47
2019-05-05T12:11:18.070Z,2.92
2019-05-05T12:13:44.439Z,2.72
2019-05-05T12:16:13.595Z,3.27
2019-05-05T12:18:39.401Z,2.90
2019-05-05T12:21:05.701Z,2.22
2019-05-05T12:23:33.990Z,4.03
2019-05-05T12:26:18.645Z,2.52
2019-05-05T12:28:50.735Z,2.20
2019-05-05T12:31:21.481Z,1.90
2019-05-05T12:33:48.816Z,1.70
2019-05-05T12:36:15.246Z,3.20
2019-05-05T12:38:44.054Z,2.55
2019-05-05T12:41:10.610Z,3.05
2019-05-05T12:43:36.913Z,2.98
2019-05-05T12:46:21.644Z,2.98
2019-05-05T12:48:50.004Z,5.05
2019-05-05T12:51:17.288Z,3.47
2019-05-05T12:53:44.670Z,2.33
2019-05-05T12:56:11.112Z,3.45
2019-05-05T12:58:37.382Z,2.55
2019-05-05T13:01:05.729Z,2.27
2019-05-05T13:03:34.481Z,4.40
2019-05-05T13:06:00.735Z,3.67
2019-05-05T13:08:26.992Z,3.52
2019-05-05T13:10:53.513Z,3.08
2019-05-05T13:13:19.982Z,3.30
2019-05-05T13:15:48.053Z,4.55
2019-05-05T13:18:14.243Z,3.25
2019-05-05T13:20:46.591Z,3.17
2019-05-05T13:23:14.815Z,4.65
2019-05-05T13:25:59.841Z,2.67
2019-05-05T13:28:26.150Z,3.58
2019-05-05T13:30:54.060Z,2.20
2019-05-05T13:33:20.297Z,4.00
2019-05-05T13:35:46.629Z,4.62
2019-05-05T13:38:14.554Z,4.55
2019-05-05T13:40:43.888Z,6.35
2019-05-05T13:43:10.081Z,7.08
2019-05-05T13:45:38.396Z,6.50
2019-05-05T13:48:04.763Z,4.17
2019-05-05T13:50:34.131Z,4.17
2019-05-05T13:53:00.519Z,6.58
2019-05-05T13:55:26.842Z,3.55
2019-05-05T13:57:54.855Z,3.58
2019-05-05T14:00:22.826Z,3.30
2019-05-05T14:02:49.269Z,4.12
2019-05-05T14:05:15.778Z,4.10
2019-05-05T14:07:43.731Z,3.70
2019-05-05T14:10:10.485Z,2.52
2019-05-05T14:12:37.076Z,4.60
2019-05-05T14:15:04.573Z,3.83
2019-05-05T14:17:30.961Z,4.28
2019-05-05T14:20:04.737Z,3.30
2019-05-05T14:22:25.529Z,5.12
2019-05-05T14:24:53.833Z,3.83
2019-05-05T14:27:20.298Z,4.60
2019-05-05T14:30:00.774Z,3.35
2019-05-05T14:32:29.382Z,4.03
2019-05-05T14:35:09.630Z,3.33
2019-05-05T14:37:37.865Z,5.00
2019-05-05T14:40:06.245Z,2.67
2019-05-05T14:42:34.206Z,3.22
2019-05-05T14:45:00.568Z,4.28
2019-05-05T14:47:26.819Z,3.42
2019-05-05T14:49:54.122Z,7.12
2019-05-05T14:52:20.771Z,5.58
2019-05-05T14:54:46.898Z,5.22
2019-05-05T14:57:13.971Z,3.27
2019-05-05T14:59:40.112Z,7.72
2019-05-05T15:02:06.445Z,4.78
2019-05-05T15:04:34.572Z,3.80
2019-05-05T15:07:19.123Z,3.15
2019-05-05T15:09:47.163Z,4.30
2019-05-05T15:12:34.157Z,6.83
2019-05-05T15:15:00.598Z,2.58
2019-05-05T15:17:27.079Z,3.35
2019-05-05T15:19:54.077Z,3.52
2019-05-05T15:22:21.470Z,3.17
2019-05-05T15:24:47.644Z,2.60
2019-05-05T15:27:13.929Z,5.45
2019-05-05T15:29:40.039Z,3.95
2019-05-05T15:32:06.287Z,2.75
2019-05-05T15:34:34.258Z,3.85
2019-05-05T15:37:00.968Z,5.42
2019-05-05T15:39:27.310Z,3.72
2019-05-05T15:41:54.250Z,4.97
2019-05-05T15:44:20.590Z,4.08
2019-05-05T15:46:48.612Z,6.72
2019-05-05T15:49:14.802Z,6.67
2019-05-05T15:51:41.026Z,3.90
2019-05-05T15:54:07.390Z,4.12
2019-05-05T15:56:34.164Z,4.78
2019-05-05T15:59:00.432Z,4.40
2019-05-05T16:01:26.667Z,4.15
2019-05-05T16:03:54.314Z,4.12
2019-05-05T16:06:20.783Z,4.35
2019-05-05T16:08:46.960Z,3.85
2019-05-05T16:11:14.244Z,4.03
2019-05-05T16:13:40.617Z,4.75
2019-05-05T16:16:08.868Z,4.22
2019-05-05T16:18:36.937Z,6.78
2019-05-05T16:21:07.989Z,6.30
2019-05-05T16:26:17.370Z,6.05
2019-05-05T16:28:44.539Z,3.27
2019-05-05T16:31:10.919Z,3.83
2019-05-05T16:33:37.190Z,3.15
2019-05-05T16:36:06.090Z,6.25
2019-05-05T16:38:34.233Z,5.17
2019-05-05T16:41:00.433Z,4.92
2019-05-05T16:43:26.617Z,4.00
2019-05-05T16:45:53.774Z,4.65
2019-05-05T16:48:20.050Z,5.87
2019-05-05T16:50:46.331Z,7.10
2019-05-05T16:53:14.435Z,5.78
2019-05-05T16:55:44.824Z,4.85
2019-05-05T16:58:10.896Z,5.12
2019-05-05T17:00:38.014Z,3.45
2019-05-05T17:03:04.504Z,4.67
2019-05-05T17:05:30.950Z,3.17
2019-05-05T17:07:58.512Z,8.03
2019-05-05T17:10:25.946Z,3.75
2019-05-05T17:12:52.815Z,5.65
2019-05-05T17:15:35.384Z,8.43
2019-05-05T17:18:32.622Z,7.00
2019-05-05T17:20:53.462Z,4.53
2019-05-05T17:23:20.944Z,4.35
2019-05-05T17:25:47.120Z,4.45
2019-05-05T17:28:13.919Z,3.98
2019-05-05T17:30:40.040Z,4.70
2019-05-05T17:33:06.292Z,5.58
2019-05-05T17:35:33.631Z,5.20
2019-05-05T17:38:07.374Z,3.50
2019-05-05T17:40:38.428Z,7.00
2019-05-05T17:45:55.083Z,5.53
2019-05-05T17:48:29.717Z,12.05
2019-05-05T17:51:14.662Z,5.08
2019-05-05T17:53:55.933Z,2.67
2019-05-05T17:56:23.878Z,6.25
2019-05-05T17:58:50.068Z,3.08
2019-05-05T18:01:16.510Z,3.50
2019-05-05T18:03:43.671Z,2.10
2019-05-05T18:06:11.734Z,2.95
2019-05-05T18:08:39.972Z,4.50
2019-05-05T18:11:08.204Z,2.50
2019-05-05T18:13:39.089Z,2.25
2019-05-05T18:16:05.523Z,3.33
2019-05-05T18:18:32.743Z,3.55
2019-05-05T18:20:59.045Z,4.12
2019-05-05T18:23:25.614Z,2.20
2019-05-05T18:25:52.232Z,5.37
2019-05-05T18:28:20.158Z,2.75
2019-05-05T18:30:46.497Z,6.42
2019-05-05T18:33:13.712Z,4.17
2019-05-05T18:35:40.062Z,2.62
2019-05-05T18:38:06.361Z,4.22
2019-05-05T18:40:33.744Z,2.17
2019-05-05T18:43:03.915Z,3.55
2019-05-05T18:45:30.227Z,3.92
2019-05-05T18:47:56.584Z,3.72
2019-05-05T18:50:24.386Z,4.00
2019-05-05T18:52:50.851Z,2.62
2019-05-05T18:55:16.966Z,4.58
2019-05-05T18:57:43.561Z,3.05
2019-05-05T19:00:13.815Z,4.53
2019-05-05T19:02:41.870Z,2.97
2019-05-05T19:05:11.513Z,3.02
2019-05-05T19:07:57.459Z,4.08
2019-05-05T19:10:24.267Z,4.25
2019-05-05T19:12:51.086Z,4.55
2019-05-05T19:15:17.660Z,4.00
2019-05-05T19:17:43.927Z,3.70
2019-05-05T19:20:21.386Z,4.15
2019-05-05T19:22:49.535Z,5.20
2019-05-05T19:25:15.711Z,6.50
2019-05-05T19:27:44.189Z,3.92
2019-05-05T19:30:10.659Z,5.10
2019-05-05T19:32:37.027Z,6.15
2019-05-05T19:35:04.995Z,7.85
2019-05-05T19:37:33.455Z,4.15
2019-05-05T19:39:59.317Z,5.72
2019-05-05T19:42:25.618Z,4.60
2019-05-05T19:44:54.427Z,3.77
2019-05-05T19:47:20.861Z,5.15
2019-05-05T19:49:51.798Z,6.10
2019-05-05T19:52:18.049Z,4.87
2019-05-05T19:54:47.414Z,3.95
2019-05-05T19:57:14.303Z,5.78
2019-05-05T19:59:40.616Z,4.42
2019-05-05T20:02:07.753Z,3.05
2019-05-05T20:04:33.926Z,6.67
2019-05-05T20:07:00.119Z,3.65
2019-05-05T20:09:26.283Z,3.87
2019-05-05T20:11:54.524Z,3.80
2019-05-05T20:14:20.812Z,5.92
2019-05-05T20:17:01.225Z,4.90
2019-05-05T20:19:29.939Z,7.90
2019-05-05T20:21:56.213Z,5.17
2019-05-05T20:24:23.992Z,4.33
2019-05-05T20:26:50.567Z,4.58
2019-05-05T20:29:17.284Z,5.45
2019-05-05T20:31:43.793Z,4.05
2019-05-05T20:34:13.486Z,45.00
2019-05-05T20:36:58.419Z,8.30
2019-05-05T20:39:24.657Z,5.25
2019-05-05T20:41:50.858Z,18.40
2019-05-05T20:44:17.177Z,19.95
2019-05-05T20:46:43.952Z,16.27
2019-05-05T20:49:10.290Z,10.10
2019-05-05T20:51:36.591Z,27.98
2019-05-05T20:54:04.788Z,4.65
2019-05-05T20:56:30.973Z,28.55
2019-05-05T20:58:57.270Z,37.67
2019-05-05T21:01:24.643Z,6.22
2019-05-05T21:03:50.900Z,7.92
2019-05-05T21:06:17.094Z,46.55
2019-05-05T21:08:44.034Z,15.25
2019-05-05T21:11:10.666Z,90.85
2019-05-05T21:13:36.964Z,6.53
2019-05-05T21:16:03.200Z,4.87
2019-05-05T21:18:29.317Z,6.75
2019-05-05T21:20:57.134Z,6.80
2019-05-05T21:23:27.864Z,7.00
2019-05-05T21:26:04.854Z,7.10
2019-05-05T21:28:31.255Z,5.08
2019-05-05T21:30:57.473Z,7.37
2019-05-05T21:33:24.015Z,5.10
2019-05-05T21:35:50.235Z,5.75
2019-05-05T21:38:16.394Z,13.10
2019-05-05T21:40:44.070Z,5.50
2019-05-05T21:43:10.316Z,5.92
2019-05-05T21:45:36.417Z,5.78
2019-05-05T21:48:04.318Z,8.80
2019-05-05T21:50:49.223Z,5.70
2019-05-05T21:53:17.310Z,5.90
2019-05-05T21:55:57.682Z,8.05
2019-05-05T21:58:25.755Z,7.30
2019-05-05T22:00:54.848Z,7.25
2019-05-05T22:03:26.174Z,5.85
2019-05-05T22:05:53.886Z,6.37
2019-05-05T22:08:20.568Z,5.95
2019-05-05T22:10:46.840Z,7.67
2019-05-05T22:13:14.224Z,6.95
2019-05-05T22:15:40.487Z,5.65
2019-05-05T22:18:06.703Z,6.53
2019-05-05T22:20:36.801Z,5.60
2019-05-05T22:23:03.798Z,4.97
2019-05-05T22:25:30.101Z,5.95
2019-05-05T22:27:56.215Z,4.03
2019-05-05T22:30:23.681Z,9.38
2019-05-05T22:32:49.873Z,6.65
2019-05-05T22:35:16.401Z,5.33
2019-05-05T22:37:43.959Z,7.15
2019-05-05T22:40:24.137Z,7.62
2019-05-05T22:42:49.517Z,6.70
2019-05-05T22:45:16.009Z,6.12
2019-05-05T22:47:42.418Z,7.35
2019-05-05T22:50:09.011Z,9.08
2019-05-05T22:52:35.251Z,5.03
2019-05-05T22:55:01.717Z,5.05
2019-05-05T22:57:28.049Z,6.33
2019-05-05T22:59:54.263Z,4.50
2019-05-05T23:02:24.390Z,7.62
2019-05-05T23:04:54.440Z,5.58
2019-05-05T23:07:28.785Z,8.23
2019-05-05T23:09:55.081Z,4.97
2019-05-05T23:12:21.239Z,5.50
2019-05-05T23:14:47.462Z,4.78
2019-05-05T23:17:15.548Z,8.65
2019-05-05T23:19:46.609Z,6.10
2019-05-05T23:24:54.098Z,7.25
2019-05-05T23:27:38.888Z,6.92
2019-05-05T23:30:06.772Z,6.50
2019-05-05T23:32:34.171Z,7.15
2019-05-05T23:35:00.416Z,6.10
2019-05-05T23:37:26.583Z,6.15
2019-05-05T23:39:54.119Z,7.25
2019-05-05T23:42:20.445Z,6.65
2019-05-05T23:44:46.611Z,6.92
2019-05-05T23:47:13.805Z,7.50
2019-05-05T23:49:40.047Z,6.15
2019-05-05T23:52:06.263Z,6.03
2019-05-05T23:54:34.098Z,8.58
2019-05-05T23:57:00.424Z,4.42
2019-05-05T23:59:26.582Z,8.78
